createdAt,value
2018-11-25T00:00:29.491Z,4.97
2018-11-25T00:02:58.431Z,5.17
2018-11-25T00:05:27.625Z,5.50
2018-11-25T00:07:56.499Z,6.10
2018-11-25T00:10:25.523Z,6.87
2018-11-25T00:12:54.450Z,6.50
2018-11-25T00:15:23.413Z,7.87
2018-11-25T00:17:52.343Z,7.33
2018-11-25T00:20:22.122Z,7.07
2018-11-25T00:22:51.168Z,4.70
2018-11-25T00:25:20.219Z,4.90
2018-11-25T00:27:49.087Z,4.37
2018-11-25T00:30:18.076Z,5.40
2018-11-25T00:32:47.235Z,5.40
2018-11-25T00:35:16.877Z,6.10
2018-11-25T00:37:48.248Z,6.00
2018-11-25T00:40:15.790Z,6.00
2018-11-25T00:42:45.266Z,5.47
2018-11-25T00:45:16.324Z,5.87
2018-11-25T00:47:45.513Z,6.37
2018-11-25T00:50:15.416Z,5.80
2018-11-25T00:52:44.423Z,6.47
2018-11-25T00:55:17.878Z,7.20
2018-11-25T00:57:47.019Z,6.90
2018-11-25T01:00:22.525Z,7.97
2018-11-25T01:02:51.721Z,8.77
2018-11-25T01:05:20.988Z,7.47
2018-11-25T01:07:50.166Z,7.47
2018-11-25T01:10:19.289Z,7.50
2018-11-25T01:12:48.601Z,8.40
2018-11-25T01:15:18.404Z,8.23
2018-11-25T01:17:47.721Z,8.30
2018-11-25T01:20:17.761Z,9.37
2018-11-25T01:22:46.801Z,9.07
2018-11-25T01:25:16.047Z,8.63
2018-11-25T01:27:45.077Z,11.20
2018-11-25T01:30:17.880Z,10.60
2018-11-25T01:32:47.033Z,9.73
2018-11-25T01:35:16.335Z,8.17
2018-11-25T01:37:46.162Z,10.03
2018-11-25T01:40:18.477Z,7.43
2018-11-25T01:42:47.800Z,6.80
2018-11-25T01:45:17.602Z,8.30
2018-11-25T01:47:46.821Z,8.50
2018-11-25T01:50:16.856Z,7.27
2018-11-25T01:52:46.521Z,7.27
2018-11-25T01:55:16.642Z,7.53
2018-11-25T01:57:46.592Z,7.13
2018-11-25T02:00:17.728Z,6.57
2018-11-25T02:02:46.693Z,7.30
2018-11-25T02:05:15.976Z,7.30
2018-11-25T02:07:45.202Z,7.10
2018-11-25T02:10:15.898Z,7.20
2018-11-25T02:12:44.944Z,7.27
2018-11-25T02:15:15.844Z,7.00
2018-11-25T02:17:45.122Z,7.57
2018-11-25T02:20:18.129Z,7.40
2018-11-25T02:22:47.229Z,7.23
2018-11-25T02:25:16.225Z,7.37
2018-11-25T02:27:45.166Z,8.70
2018-11-25T02:30:15.556Z,6.90
2018-11-25T02:32:44.627Z,7.47
2018-11-25T02:35:14.531Z,7.00
2018-11-25T02:37:43.592Z,7.60
2018-11-25T02:40:13.737Z,7.43
2018-11-25T02:42:42.680Z,7.63
2018-11-25T02:45:13.072Z,7.77
2018-11-25T02:47:42.261Z,7.80
2018-11-25T02:50:28.436Z,7.33
2018-11-25T02:53:12.850Z,7.60
2018-11-25T02:55:41.755Z,7.67
2018-11-25T02:58:10.914Z,6.00
2018-11-25T03:00:39.892Z,7.23
2018-11-25T03:03:09.019Z,6.60
2018-11-25T03:05:38.003Z,7.23
2018-11-25T03:08:07.184Z,7.13
2018-11-25T03:10:36.268Z,7.83
2018-11-25T03:13:05.299Z,7.33
2018-11-25T03:15:34.205Z,7.03
2018-11-25T03:18:03.099Z,7.50
2018-11-25T03:20:32.379Z,7.83
2018-11-25T03:23:01.363Z,7.13
2018-11-25T03:25:30.430Z,7.50
2018-11-25T03:27:59.425Z,7.70
2018-11-25T03:30:28.575Z,7.57
2018-11-25T03:32:57.662Z,7.00
2018-11-25T03:35:26.710Z,7.20
2018-11-25T03:37:55.707Z,6.30
2018-11-25T03:40:24.791Z,7.30
2018-11-25T03:42:53.980Z,7.17
2018-11-25T03:45:23.137Z,6.83
2018-11-25T03:47:52.256Z,7.03
2018-11-25T03:50:21.170Z,6.73
2018-11-25T03:52:50.252Z,6.67
2018-11-25T03:55:19.418Z,7.17
2018-11-25T03:57:48.571Z,7.43
2018-11-25T04:00:22.621Z,7.00
2018-11-25T04:02:53.504Z,8.00
2018-11-25T04:05:22.522Z,7.27
2018-11-25T04:07:51.511Z,8.13
2018-11-25T04:10:20.553Z,8.27
2018-11-25T04:12:49.627Z,7.53
2018-11-25T04:15:19.451Z,7.47
2018-11-25T04:17:49.058Z,8.43
2018-11-25T04:20:19.604Z,7.43
2018-11-25T04:22:48.827Z,7.50
2018-11-25T04:25:17.938Z,7.43
2018-11-25T04:27:46.817Z,8.07
2018-11-25T04:30:19.312Z,7.90
2018-11-25T04:32:50.238Z,8.60
2018-11-25T04:35:19.398Z,8.73
2018-11-25T04:37:48.545Z,8.23
2018-11-25T04:40:19.020Z,9.27
2018-11-25T04:42:48.181Z,8.33
2018-11-25T04:45:17.634Z,8.57
2018-11-25T04:47:47.189Z,8.63
2018-11-25T04:50:17.751Z,7.80
2018-11-25T04:52:46.916Z,8.17
2018-11-25T04:55:15.996Z,8.33
2018-11-25T04:57:50.447Z,8.60
2018-11-25T05:00:19.697Z,8.67
2018-11-25T05:02:49.189Z,8.30
2018-11-25T05:05:19.058Z,8.27
2018-11-25T05:07:48.584Z,8.67
2018-11-25T05:10:18.236Z,8.13
2018-11-25T05:12:47.409Z,8.30
2018-11-25T05:15:22.004Z,8.30
2018-11-25T05:17:51.106Z,8.43
2018-11-25T05:20:20.974Z,7.57
2018-11-25T05:22:49.852Z,8.07
2018-11-25T05:25:19.528Z,7.90
2018-11-25T05:27:48.661Z,7.67
2018-11-25T05:30:19.523Z,7.87
2018-11-25T05:32:48.545Z,8.20
2018-11-25T05:35:21.850Z,7.43
2018-11-25T05:37:50.823Z,7.20
2018-11-25T05:40:19.734Z,7.20
2018-11-25T05:42:48.890Z,8.43
2018-11-25T05:45:19.138Z,7.20
2018-11-25T05:47:48.339Z,8.27
2018-11-25T05:50:18.681Z,7.70
2018-11-25T05:52:48.378Z,7.73
2018-11-25T05:55:17.731Z,8.33
2018-11-25T05:57:46.727Z,8.30
2018-11-25T06:00:19.216Z,8.23
2018-11-25T06:02:48.991Z,8.97
2018-11-25T06:05:17.862Z,8.60
2018-11-25T06:07:46.807Z,9.90
2018-11-25T06:10:15.826Z,9.03
2018-11-25T06:12:44.851Z,8.67
2018-11-25T06:15:14.832Z,9.53
2018-11-25T06:17:43.932Z,9.63
2018-11-25T06:20:14.053Z,9.63
2018-11-25T06:22:43.241Z,9.97
2018-11-25T06:25:13.970Z,9.50
2018-11-25T06:27:42.924Z,9.83
2018-11-25T06:30:16.798Z,10.10
2018-11-25T06:32:46.061Z,8.53
2018-11-25T06:35:16.243Z,10.00
2018-11-25T06:37:45.744Z,10.53
2018-11-25T06:40:18.839Z,10.63
2018-11-25T06:42:47.882Z,10.90
2018-11-25T06:45:25.809Z,11.07
2018-11-25T06:47:56.122Z,11.73
2018-11-25T06:50:25.126Z,11.87
2018-11-25T06:52:54.246Z,11.77
2018-11-25T06:55:23.271Z,11.53
2018-11-25T06:57:52.176Z,12.03
2018-11-25T07:00:23.188Z,11.67
2018-11-25T07:02:52.245Z,12.23
2018-11-25T07:05:21.443Z,12.57
2018-11-25T07:07:50.401Z,12.47
2018-11-25T07:10:20.357Z,13.60
2018-11-25T07:12:51.521Z,13.17
2018-11-25T07:15:20.563Z,12.90
2018-11-25T07:17:49.786Z,12.53
2018-11-25T07:20:19.329Z,13.27
2018-11-25T07:22:48.481Z,13.23
2018-11-25T07:25:21.406Z,15.07
2018-11-25T07:27:50.696Z,14.00
2018-11-25T07:30:23.653Z,14.30
2018-11-25T07:32:52.783Z,15.27
2018-11-25T07:35:23.645Z,14.27
2018-11-25T07:37:52.660Z,14.23
2018-11-25T07:40:22.446Z,14.60
2018-11-25T07:42:51.401Z,17.17
2018-11-25T07:45:21.426Z,15.43
2018-11-25T07:47:50.366Z,15.70
2018-11-25T07:50:19.401Z,17.77
2018-11-25T07:52:49.251Z,17.53
2018-11-25T07:55:19.356Z,18.10
2018-11-25T07:57:48.880Z,17.47
2018-11-25T08:00:19.671Z,19.17
2018-11-25T08:02:48.688Z,19.90
2018-11-25T08:05:20.602Z,21.50
2018-11-25T08:07:49.719Z,22.40
2018-11-25T08:10:18.772Z,24.93
2018-11-25T08:12:48.083Z,23.63
2018-11-25T08:15:18.722Z,24.43
2018-11-25T08:17:47.949Z,25.90
2018-11-25T08:20:24.041Z,26.93
2018-11-25T08:22:57.801Z,28.00
2018-11-25T08:25:26.920Z,29.43
2018-11-25T08:27:56.363Z,27.83
2018-11-25T08:30:25.525Z,27.97
2018-11-25T08:32:54.632Z,28.70
2018-11-25T08:35:24.284Z,28.60
2018-11-25T08:37:53.203Z,26.33
2018-11-25T08:40:23.427Z,27.23
2018-11-25T08:42:53.204Z,28.17
2018-11-25T08:45:22.366Z,26.60
2018-11-25T08:47:51.565Z,26.13
2018-11-25T08:50:20.977Z,27.83
2018-11-25T08:52:51.963Z,24.83
2018-11-25T08:55:24.960Z,26.17
2018-11-25T08:57:54.528Z,28.33
2018-11-25T09:00:25.419Z,26.33
2018-11-25T09:02:55.696Z,25.70
2018-11-25T09:05:24.839Z,23.40
2018-11-25T09:07:53.757Z,23.20
2018-11-25T09:10:23.134Z,21.87
2018-11-25T09:12:55.985Z,22.43
2018-11-25T09:15:25.046Z,22.17
2018-11-25T09:17:54.108Z,22.80
2018-11-25T09:20:23.482Z,21.90
2018-11-25T09:22:52.947Z,21.73
2018-11-25T09:25:26.803Z,20.93
2018-11-25T09:27:56.171Z,21.37
2018-11-25T09:30:27.296Z,22.63
2018-11-25T09:32:56.461Z,22.83
2018-11-25T09:35:25.776Z,20.93
2018-11-25T09:37:54.690Z,20.47
2018-11-25T09:40:25.722Z,21.83
2018-11-25T09:42:54.790Z,22.33
2018-11-25T09:45:23.875Z,21.97
2018-11-25T09:47:52.940Z,21.50
2018-11-25T09:50:23.631Z,22.30
2018-11-25T09:52:53.542Z,19.80
2018-11-25T09:55:25.175Z,20.97
2018-11-25T09:58:00.203Z,22.57
2018-11-25T10:00:37.023Z,20.90
2018-11-25T10:03:07.363Z,19.97
2018-11-25T10:05:36.539Z,20.97
2018-11-25T10:08:05.777Z,19.97
2018-11-25T10:10:35.001Z,20.23
2018-11-25T10:13:04.278Z,20.57
2018-11-25T10:15:33.531Z,19.97
2018-11-25T10:18:02.629Z,20.77
2018-11-25T10:20:32.587Z,20.33
2018-11-25T10:23:01.521Z,20.43
2018-11-25T10:25:30.852Z,20.07
2018-11-25T10:28:00.076Z,16.27
2018-11-25T10:30:30.303Z,18.03
2018-11-25T10:33:01.920Z,19.27
2018-11-25T10:35:30.899Z,18.97
2018-11-25T10:38:00.061Z,19.53
2018-11-25T10:40:29.160Z,17.97
2018-11-25T10:42:58.251Z,17.27
2018-11-25T10:45:28.187Z,17.13
2018-11-25T10:47:58.061Z,19.43
2018-11-25T10:50:27.080Z,18.40
2018-11-25T10:52:56.063Z,15.77
2018-11-25T10:55:26.281Z,16.67
2018-11-25T10:57:55.281Z,16.80
2018-11-25T11:00:35.556Z,16.90
2018-11-25T11:03:11.411Z,16.00
2018-11-25T11:05:45.648Z,16.70
2018-11-25T11:08:14.881Z,17.60
2018-11-25T11:10:44.177Z,19.90
2018-11-25T11:13:13.419Z,19.17
2018-11-25T11:15:42.510Z,17.13
2018-11-25T11:18:11.546Z,18.00
2018-11-25T11:20:40.732Z,17.30
2018-11-25T11:23:09.648Z,18.10
2018-11-25T11:25:38.602Z,19.50
2018-11-25T11:28:07.805Z,18.63
2018-11-25T11:30:36.918Z,18.30
2018-11-25T11:33:05.936Z,19.27
2018-11-25T11:35:34.965Z,18.47
2018-11-25T11:38:03.957Z,19.60
2018-11-25T11:40:33.006Z,20.30
2018-11-25T11:43:01.999Z,19.63
2018-11-25T11:45:32.114Z,19.27
2018-11-25T11:48:01.055Z,19.73
2018-11-25T11:50:30.147Z,19.77
2018-11-25T11:52:59.346Z,20.73
2018-11-25T11:55:28.553Z,21.30
2018-11-25T11:57:57.832Z,21.70
2018-11-25T12:00:28.480Z,21.57
2018-11-25T12:02:57.618Z,21.27
2018-11-25T12:05:27.027Z,20.10
2018-11-25T12:07:56.248Z,22.23
2018-11-25T12:10:25.368Z,22.60
2018-11-25T12:12:54.566Z,22.87
2018-11-25T12:15:30.585Z,23.20
2018-11-25T12:17:55.329Z,22.10
2018-11-25T12:20:25.356Z,22.07
2018-11-25T12:22:55.204Z,21.70
2018-11-25T12:25:24.205Z,21.30
2018-11-25T12:27:53.710Z,22.70
2018-11-25T12:30:22.957Z,21.60
2018-11-25T12:32:52.605Z,21.07
2018-11-25T12:35:21.963Z,22.40
2018-11-25T12:37:51.323Z,21.03
2018-11-25T12:40:22.356Z,21.27
2018-11-25T12:42:53.491Z,22.07
2018-11-25T12:45:22.765Z,20.90
2018-11-25T12:47:52.054Z,21.20
2018-11-25T12:50:23.041Z,21.23
2018-11-25T12:52:52.270Z,21.70
2018-11-25T12:55:23.562Z,21.67
2018-11-25T12:57:53.336Z,22.60
2018-11-25T13:00:33.607Z,22.47
2018-11-25T13:03:02.724Z,21.50
2018-11-25T13:05:32.062Z,22.87
2018-11-25T13:08:01.286Z,22.97
2018-11-25T13:10:30.844Z,23.20
2018-11-25T13:13:00.474Z,22.73
2018-11-25T13:15:29.749Z,24.43
2018-11-25T13:17:58.824Z,22.27
2018-11-25T13:20:28.095Z,24.27
2018-11-25T13:22:57.035Z,24.87
2018-11-25T13:25:26.288Z,22.73
2018-11-25T13:27:55.612Z,24.47
2018-11-25T13:30:28.994Z,23.80
2018-11-25T13:33:01.230Z,23.83
2018-11-25T13:35:31.926Z,25.83
2018-11-25T13:38:01.214Z,24.87
2018-11-25T13:40:30.656Z,25.17
2018-11-25T13:42:59.949Z,25.80
2018-11-25T13:45:29.292Z,25.50
2018-11-25T13:47:58.734Z,25.17
2018-11-25T13:50:28.051Z,24.50
2018-11-25T13:52:57.359Z,23.20
2018-11-25T13:55:27.753Z,23.63
2018-11-25T13:57:57.957Z,24.50
2018-11-25T14:00:31.134Z,25.73
2018-11-25T14:03:00.317Z,24.03
2018-11-25T14:05:29.212Z,23.93
2018-11-25T14:07:58.615Z,23.30
2018-11-25T14:10:29.652Z,22.37
2018-11-25T14:12:58.799Z,24.07
2018-11-25T14:15:27.816Z,21.97
2018-11-25T14:17:56.870Z,22.83
2018-11-25T14:20:26.027Z,22.57
2018-11-25T14:22:55.447Z,21.57
2018-11-25T14:25:25.245Z,21.60
2018-11-25T14:27:59.216Z,23.03
2018-11-25T14:30:29.828Z,21.80
2018-11-25T14:32:58.817Z,21.37
2018-11-25T14:35:27.983Z,21.13
2018-11-25T14:37:57.434Z,20.50
2018-11-25T14:40:26.543Z,22.67
2018-11-25T14:42:56.050Z,22.17
2018-11-25T14:45:25.557Z,27.80
2018-11-25T14:47:54.807Z,28.60
2018-11-25T14:50:24.048Z,27.43
2018-11-25T14:52:54.152Z,29.70
2018-11-25T14:55:23.240Z,29.13
2018-11-25T14:57:52.282Z,30.43
2018-11-25T15:00:22.310Z,29.53
2018-11-25T15:02:56.966Z,31.27
2018-11-25T15:05:44.097Z,29.63
2018-11-25T15:08:20.747Z,29.93
2018-11-25T15:10:50.063Z,27.57
2018-11-25T15:13:19.449Z,27.70
2018-11-25T15:15:49.296Z,28.87
2018-11-25T15:18:18.402Z,29.60
2018-11-25T15:20:48.443Z,29.77
2018-11-25T15:23:17.651Z,30.20
2018-11-25T15:25:48.812Z,29.73
2018-11-25T15:28:18.163Z,30.33
2018-11-25T15:30:47.439Z,30.20
2018-11-25T15:33:16.887Z,30.37
2018-11-25T15:35:46.886Z,30.30
2018-11-25T15:38:16.284Z,28.13
2018-11-25T15:40:45.434Z,28.50
2018-11-25T15:43:15.015Z,27.77
2018-11-25T15:45:44.238Z,29.07
2018-11-25T15:48:18.255Z,27.77
2018-11-25T15:50:47.634Z,28.00
2018-11-25T15:53:18.011Z,31.53
2018-11-25T15:55:47.407Z,28.67
2018-11-25T15:58:17.213Z,29.50
2018-11-25T16:00:46.533Z,31.90
2018-11-25T16:03:17.091Z,32.23
2018-11-25T16:05:48.281Z,31.27
2018-11-25T16:08:17.404Z,32.33
2018-11-25T16:10:46.852Z,31.83
2018-11-25T16:13:15.966Z,29.70
2018-11-25T16:15:45.323Z,32.27
2018-11-25T16:18:14.493Z,30.17
2018-11-25T16:20:44.969Z,29.47
2018-11-25T16:23:14.390Z,30.33
2018-11-25T16:25:49.230Z,29.67
2018-11-25T16:28:21.238Z,29.73
2018-11-25T16:30:51.192Z,30.47
2018-11-25T16:33:20.838Z,29.00
2018-11-25T16:35:50.102Z,30.83
2018-11-25T16:38:19.510Z,29.70
2018-11-25T16:40:48.804Z,31.43
2018-11-25T16:43:18.202Z,32.73
2018-11-25T16:45:47.964Z,34.37
2018-11-25T16:48:16.922Z,32.03
2018-11-25T16:50:46.042Z,32.30
2018-11-25T16:53:15.174Z,31.67
2018-11-25T16:55:44.332Z,35.23
2018-11-25T16:58:13.778Z,33.80
2018-11-25T17:00:43.129Z,34.83
2018-11-25T17:03:12.269Z,36.00
2018-11-25T17:05:44.562Z,35.97
2018-11-25T17:08:27.522Z,36.80
2018-11-25T17:10:56.884Z,35.37
2018-11-25T17:13:26.081Z,35.70
2018-11-25T17:15:55.485Z,37.70
2018-11-25T17:18:24.644Z,35.30
2018-11-25T17:20:53.723Z,36.33
2018-11-25T17:23:23.679Z,36.73
2018-11-25T17:25:53.470Z,34.80
2018-11-25T17:28:22.565Z,38.97
2018-11-25T17:30:51.724Z,37.53
2018-11-25T17:33:21.859Z,37.83
2018-11-25T17:35:50.267Z,37.87
2018-11-25T17:38:19.199Z,37.63
2018-11-25T17:40:48.600Z,34.23
2018-11-25T17:43:21.009Z,35.90
2018-11-25T17:45:50.325Z,36.43
2018-11-25T17:48:19.401Z,36.73
2018-11-25T17:50:48.632Z,34.50
2018-11-25T17:53:20.961Z,37.03
2018-11-25T17:55:47.161Z,34.83
2018-11-25T17:58:16.281Z,37.53
2018-11-25T18:00:51.603Z,35.37
2018-11-25T18:03:25.830Z,38.03
2018-11-25T18:05:54.923Z,34.57
2018-11-25T18:08:24.165Z,34.70
2018-11-25T18:10:53.403Z,37.43
2018-11-25T18:13:24.241Z,36.43
2018-11-25T18:15:54.493Z,33.90
2018-11-25T18:18:45.127Z,34.20
2018-11-25T18:21:18.349Z,34.60
2018-11-25T18:23:47.557Z,32.97
2018-11-25T18:26:17.079Z,32.40
2018-11-25T18:28:46.323Z,34.83
2018-11-25T18:31:15.930Z,34.50
2018-11-25T18:33:46.082Z,32.80
2018-11-25T18:36:15.715Z,33.83
2018-11-25T18:38:45.521Z,32.53
2018-11-25T18:41:15.125Z,34.23
2018-11-25T18:43:44.681Z,33.23
2018-11-25T18:46:14.403Z,33.77
2018-11-25T18:48:45.967Z,31.90
2018-11-25T18:51:15.886Z,32.53
2018-11-25T18:53:45.884Z,33.30
2018-11-25T18:56:15.283Z,34.40
2018-11-25T18:58:44.324Z,33.00
2018-11-25T19:01:16.803Z,32.53
2018-11-25T19:03:46.441Z,32.30
2018-11-25T19:06:15.805Z,33.07
2018-11-25T19:08:45.365Z,33.83
2018-11-25T19:11:14.923Z,32.37
2018-11-25T19:13:44.925Z,33.83
2018-11-25T19:16:14.565Z,32.40
2018-11-25T19:18:44.124Z,33.20
2018-11-25T19:21:13.676Z,35.00
2018-11-25T19:23:43.921Z,31.83
2018-11-25T19:26:13.400Z,31.53
2018-11-25T19:28:43.036Z,30.17
2018-11-25T19:31:12.484Z,29.43
2018-11-25T19:33:42.086Z,31.60
2018-11-25T19:36:11.577Z,29.83
2018-11-25T19:38:41.549Z,32.03
2018-11-25T19:41:11.120Z,31.10
2018-11-25T19:43:40.722Z,32.20
2018-11-25T19:46:10.227Z,29.47
2018-11-25T19:48:39.684Z,31.50
2018-11-25T19:51:17.011Z,29.47
2018-11-25T19:53:38.721Z,30.90
2018-11-25T19:56:08.241Z,32.17
2018-11-25T19:58:37.650Z,30.60
2018-11-25T20:01:07.877Z,32.07
2018-11-25T20:03:43.367Z,31.10
2018-11-25T20:06:12.965Z,32.43
2018-11-25T20:08:43.230Z,29.50
2018-11-25T20:11:12.880Z,32.73
2018-11-25T20:13:42.560Z,33.13
2018-11-25T20:16:17.420Z,32.23
2018-11-25T20:18:47.229Z,34.17
2018-11-25T20:21:22.314Z,33.60
2018-11-25T20:23:52.593Z,33.20
2018-11-25T20:26:22.088Z,33.90
2018-11-25T20:28:52.410Z,32.33
2018-11-25T20:31:22.390Z,34.20
2018-11-25T20:33:53.806Z,35.87
2018-11-25T20:36:23.255Z,34.60
2018-11-25T20:38:57.877Z,35.03
2018-11-25T20:41:27.441Z,35.10
2018-11-25T20:43:56.916Z,34.30
2018-11-25T20:46:31.364Z,33.40
2018-11-25T20:49:00.970Z,34.13
2018-11-25T20:51:35.455Z,32.07
2018-11-25T20:54:05.724Z,33.47
2018-11-25T20:56:35.203Z,32.33
2018-11-25T20:59:05.086Z,31.37
2018-11-25T21:01:34.521Z,29.53
2018-11-25T21:04:03.641Z,28.30
2018-11-25T21:06:32.764Z,28.47
2018-11-25T21:09:02.294Z,27.60
2018-11-25T21:11:32.305Z,27.60
2018-11-25T21:14:02.550Z,25.27
2018-11-25T21:16:32.163Z,24.83
2018-11-25T21:19:01.212Z,24.47
2018-11-25T21:21:30.443Z,24.17
2018-11-25T21:23:59.931Z,24.70
2018-11-25T21:26:29.285Z,24.53
2018-11-25T21:28:58.405Z,24.70
2018-11-25T21:31:27.843Z,25.13
2018-11-25T21:33:56.962Z,23.40
2018-11-25T21:36:25.922Z,25.53
2018-11-25T21:38:55.121Z,25.33
2018-11-25T21:41:24.252Z,24.03
2018-11-25T21:43:53.346Z,24.07
2018-11-25T21:46:22.324Z,24.17
2018-11-25T21:48:51.642Z,24.63
2018-11-25T21:51:20.686Z,26.17
2018-11-25T21:53:49.684Z,23.43
2018-11-25T21:56:19.123Z,22.60
2018-11-25T21:58:48.184Z,21.70
2018-11-25T22:01:17.359Z,23.93
2018-11-25T22:03:46.646Z,22.87
2018-11-25T22:06:15.963Z,23.90
2018-11-25T22:08:45.042Z,24.77
2018-11-25T22:11:19.651Z,24.03
2018-11-25T22:13:48.642Z,24.30
2018-11-25T22:16:18.443Z,25.43
2018-11-25T22:18:47.435Z,22.73
2018-11-25T22:21:16.481Z,22.20
2018-11-25T22:23:45.722Z,24.57
2018-11-25T22:26:15.082Z,22.80
2018-11-25T22:28:44.123Z,22.60
2018-11-25T22:31:13.256Z,22.53
2018-11-25T22:33:42.479Z,22.77
2018-11-25T22:36:11.608Z,22.13
2018-11-25T22:38:40.838Z,24.80
2018-11-25T22:41:09.812Z,23.43
2018-11-25T22:43:39.170Z,24.07
2018-11-25T22:46:08.321Z,22.03
2018-11-25T22:48:37.480Z,22.10
2018-11-25T22:51:06.875Z,22.37
2018-11-25T22:53:36.028Z,22.50
2018-11-25T22:56:05.242Z,22.03
2018-11-25T22:58:34.414Z,22.20
2018-11-25T23:01:03.534Z,21.50
2018-11-25T23:03:32.642Z,21.60
2018-11-25T23:06:12.474Z,21.60
2018-11-25T23:08:41.681Z,20.90
2018-11-25T23:11:10.840Z,21.77
2018-11-25T23:13:40.087Z,22.50
2018-11-25T23:16:09.204Z,21.10
2018-11-25T23:18:38.402Z,20.10
2018-11-25T23:21:08.124Z,20.43
2018-11-25T23:23:37.328Z,20.63
2018-11-25T23:26:06.481Z,20.80
2018-11-25T23:28:35.525Z,20.33
2018-11-25T23:31:05.080Z,21.17
2018-11-25T23:33:34.122Z,20.60
2018-11-25T23:36:03.320Z,20.37
2018-11-25T23:38:32.599Z,20.10
2018-11-25T23:41:01.682Z,20.10
2018-11-25T23:43:30.687Z,19.33
2018-11-25T23:45:59.886Z,19.77
2018-11-25T23:48:29.360Z,19.93
2018-11-25T23:50:58.522Z,19.40
2018-11-25T23:53:27.642Z,20.87
2018-11-25T23:55:56.847Z,19.93
2018-11-25T23:58:26.000Z,20.23
